Time;durP1;ratioP1;P1;durP2;ratioP2;P2;SDS_P1;SDS_P2;PMS_P1;PMS_P2;Temp;Humidity;BMP_temperature;BMP_pressure;BME280_temperature;BME280_humidity;BME280_pressure;Samples;Min_cycle;Max_cycle;Signal;HPM_P1;HPM_P2
2024/03/12 00:00:32;;;;;;;77.30;29.58;;;;;;;12.22;76.68;101067.16;4952893;28;20492;-47
2024/03/12 00:02:57;;;;;;;78.70;30.23;;;;;;;11.91;77.86;101072.06;4952325;28;20089;-47
2024/03/12 00:05:22;;;;;;;73.85;28.92;;;;;;;12.12;76.74;101072.31;4952448;28;20118;-45
2024/03/12 00:07:49;;;;;;;76.65;29.63;;;;;;;12.17;76.92;101072.34;4951994;28;20418;-45
2024/03/12 00:10:17;;;;;;;78.68;29.27;;;;;;;11.90;77.69;101083.38;4952418;28;20038;-47
2024/03/12 00:12:50;;;;;;;77.38;29.73;;;;;;;11.69;78.56;101089.22;4952228;28;20086;-47
2024/03/12 00:15:17;;;;;;;88.40;30.70;;;;;;;12.06;77.57;101093.16;4952101;29;20406;-45
2024/03/12 00:17:43;;;;;;;85.50;29.98;;;;;;;12.08;77.04;101088.81;4952764;28;20042;-46
2024/03/12 00:20:18;;;;;;;83.68;29.40;;;;;;;12.01;77.39;101087.03;4952386;28;20063;-48
2024/03/12 00:22:48;;;;;;;76.28;28.63;;;;;;;12.09;77.21;101100.13;4951805;28;20039;-45
2024/03/12 00:25:15;;;;;;;78.68;29.50;;;;;;;11.71;77.77;101094.47;4952348;28;20146;-45
2024/03/12 00:27:41;;;;;;;80.25;29.70;;;;;;;11.94;77.39;101093.03;4954165;28;20043;-45
2024/03/12 00:30:09;;;;;;;82.28;30.38;;;;;;;12.05;76.94;101100.97;4956755;28;20502;-45
2024/03/12 00:32:36;;;;;;;94.07;29.02;;;;;;;11.77;78.24;101098.03;4955007;28;20090;-48
2024/03/12 00:35:05;;;;;;;81.88;30.15;;;;;;;12.10;77.27;101105.41;4956201;28;20046;-49
2024/03/12 00:37:33;;;;;;;82.95;29.83;;;;;;;11.89;77.66;101105.16;4956008;28;20379;-48
2024/03/12 00:39:59;;;;;;;84.30;30.92;;;;;;;12.06;77.22;101108.84;4955198;28;20140;-46
2024/03/12 00:42:25;;;;;;;96.75;30.70;;;;;;;11.73;77.39;101117.16;4955334;28;20490;-46
2024/03/12 00:44:51;;;;;;;81.97;30.02;;;;;;;12.01;77.08;101109.66;4956363;28;20035;-47
2024/03/12 00:47:17;;;;;;;85.65;29.80;;;;;;;11.69;77.64;101117.06;4957012;28;20473;-45
2024/03/12 00:49:45;;;;;;;80.32;29.30;;;;;;;12.16;76.69;101115.03;4955752;28;20048;-45
2024/03/12 00:52:10;;;;;;;82.60;28.38;;;;;;;11.72;77.34;101127.53;4956453;28;20039;-44
2024/03/12 00:54:36;;;;;;;73.72;27.77;;;;;;;11.85;77.14;101128.59;4956786;28;20047;-45
2024/03/12 00:57:02;;;;;;;71.90;27.27;;;;;;;11.76;77.03;101132.88;4956797;28;20046;-49
2024/03/12 00:59:31;;;;;;;71.38;26.38;;;;;;;11.60;77.39;101138.69;4956422;28;20027;-47
2024/03/12 01:01:57;;;;;;;71.68;25.75;;;;;;;11.59;77.78;101144.78;4955231;28;20047;-45
2024/03/12 01:04:22;;;;;;;75.57;26.23;;;;;;;12.04;76.38;101134.06;4955564;28;20556;-46
2024/03/12 01:06:49;;;;;;;73.45;25.67;;;;;;;11.88;75.91;101145.22;4955339;28;20042;-46
2024/03/12 01:09:17;;;;;;;61.95;24.98;;;;;;;11.78;76.41;101140.72;4955137;28;20051;-46
2024/03/12 01:11:43;;;;;;;66.90;25.20;;;;;;;11.75;76.56;101149.41;4954289;28;20050;-48
2024/03/12 01:14:08;;;;;;;70.57;24.48;;;;;;;12.07;74.88;101146.31;4954602;28;20035;-46
2024/03/12 01:16:33;;;;;;;62.47;24.48;;;;;;;12.07;74.23;101151.53;4954453;28;20118;-43
2024/03/12 01:18:58;;;;;;;74.25;25.20;;;;;;;12.17;74.23;101151.66;4955307;28;20031;-46
2024/03/12 01:21:24;;;;;;;65.32;24.85;;;;;;;12.22;74.04;101142.97;4954653;28;20061;-44
2024/03/12 01:23:49;;;;;;;63.53;24.25;;;;;;;12.32;73.08;101150.91;4955878;28;20059;-45
2024/03/12 01:26:15;;;;;;;65.88;22.77;;;;;;;12.24;73.83;101157.81;4955537;28;20036;-47
2024/03/12 01:28:41;;;;;;;66.03;23.80;;;;;;;11.96;74.34;101159.22;4953991;28;20047;-50
2024/03/12 01:31:07;;;;;;;61.63;24.60;;;;;;;12.08;74.47;101158.50;4954456;28;20577;-45
2024/03/12 01:33:32;;;;;;;62.72;23.65;;;;;;;12.00;74.91;101162.78;4954848;28;20075;-45
2024/03/12 01:36:05;;;;;;;65.07;23.25;;;;;;;11.55;76.46;101156.03;4954184;28;20119;-48
2024/03/12 01:38:34;;;;;;;66.43;23.25;;;;;;;11.90;75.89;101166.09;4953672;28;20038;-45
2024/03/12 01:41:05;;;;;;;71.72;24.98;;;;;;;11.68;76.56;101163.19;4952134;29;20039;-46
2024/03/12 01:43:30;;;;;;;62.00;23.85;;;;;;;11.84;75.85;101174.75;4954110;28;20031;-46
2024/03/12 01:45:56;;;;;;;60.97;22.95;;;;;;;11.84;76.24;101181.69;4953620;28;20033;-45
2024/03/12 01:48:22;;;;;;;61.35;23.30;;;;;;;11.99;75.62;101172.34;4954862;28;20521;-44
2024/03/12 01:50:49;;;;;;;61.35;23.52;;;;;;;11.60;76.09;101180.47;4952982;28;20035;-49
2024/03/12 01:53:15;;;;;;;67.00;22.50;;;;;;;11.59;76.10;101178.72;4954045;28;20516;-45
2024/03/12 01:55:42;;;;;;;66.07;23.80;;;;;;;11.54;76.91;101189.97;4952534;28;20479;-45
2024/03/12 01:58:08;;;;;;;61.15;23.27;;;;;;;11.93;75.86;101190.56;4952978;28;20024;-46
2024/03/12 02:00:33;;;;;;;62.15;23.42;;;;;;;12.04;75.23;101193.28;4953540;28;20067;-45
2024/03/12 02:02:59;;;;;;;56.90;24.13;;;;;;;11.77;76.37;101192.06;4953792;28;20031;-46
2024/03/12 02:05:26;;;;;;;59.95;23.48;;;;;;;11.73;76.18;101185.06;4953939;28;20031;-45
2024/03/12 02:07:53;;;;;;;68.55;23.45;;;;;;;11.51;77.39;101187.31;4953448;28;20031;-46
2024/03/12 02:10:19;;;;;;;67.28;23.67;;;;;;;11.87;76.49;101193.09;4953429;28;20038;-46
2024/03/12 02:12:45;;;;;;;62.42;24.23;;;;;;;11.42;77.81;101201.09;4953171;28;20062;-45
2024/03/12 02:15:12;;;;;;;69.70;24.90;;;;;;;11.09;79.26;101205.81;4953792;28;20039;-46
2024/03/12 02:17:39;;;;;;;67.20;25.40;;;;;;;11.50;77.65;101199.50;4953408;28;20387;-45
2024/03/12 02:20:08;;;;;;;63.47;24.58;;;;;;;11.34;78.60;101205.34;4953991;28;20490;-48
2024/03/12 02:22:35;;;;;;;73.00;25.50;;;;;;;11.41;78.65;101199.34;4952628;28;20066;-46
2024/03/12 02:25:04;;;;;;;71.10;24.85;;;;;;;11.37;78.33;101200.16;4953190;28;20039;-45
2024/03/12 02:27:29;;;;;;;70.55;25.38;;;;;;;11.39;78.15;101199.34;4953378;28;20442;-46
2024/03/12 02:29:55;;;;;;;73.95;26.00;;;;;;;11.30;78.34;101200.91;4953162;28;20159;-45
2024/03/12 02:32:22;;;;;;;68.20;24.73;;;;;;;11.29;77.86;101209.59;4953009;28;20027;-44
2024/03/12 02:34:49;;;;;;;69.25;24.83;;;;;;;11.46;77.66;101210.75;4953153;28;20065;-47
2024/03/12 02:37:14;;;;;;;73.32;25.00;;;;;;;11.48;77.99;101209.03;4953667;28;20027;-45
2024/03/12 02:39:40;;;;;;;66.95;23.88;;;;;;;11.57;76.87;101210.91;4954770;28;20050;-48
2024/03/12 02:42:05;;;;;;;62.70;23.42;;;;;;;11.09;78.84;101214.53;4955096;28;20035;-46
2024/03/12 02:44:31;;;;;;;63.17;23.90;;;;;;;11.09;78.98;101224.06;4953755;28;20066;-45
2024/03/12 02:46:57;;;;;;;71.25;24.33;;;;;;;11.57;77.02;101216.13;4951860;28;20383;-46
2024/03/12 02:49:23;;;;;;;61.30;23.63;;;;;;;11.28;77.88;101210.47;4953686;28;20082;-47
2024/03/12 02:51:48;;;;;;;63.92;23.17;;;;;;;11.22;78.31;101211.22;4951135;28;20049;-46
2024/03/12 02:54:15;;;;;;;61.90;23.13;;;;;;;11.01;78.36;101216.13;4953145;28;20035;-47
2024/03/12 02:56:40;;;;;;;62.53;23.05;;;;;;;11.33;77.39;101212.31;4950390;28;20035;-50
2024/03/12 02:59:08;;;;;;;63.63;22.80;;;;;;;11.35;77.33;101213.19;4953412;28;20039;-46
2024/03/12 03:01:35;;;;;;;57.25;22.38;;;;;;;11.32;77.03;101215.75;4952648;28;20414;-43
2024/03/12 03:04:00;;;;;;;65.72;23.40;;;;;;;11.37;77.28;101208.00;4952965;28;20461;-44
2024/03/12 03:06:26;;;;;;;60.25;23.38;;;;;;;11.36;76.65;101206.22;4952697;28;20066;-46
2024/03/12 03:08:51;;;;;;;55.65;21.92;;;;;;;11.62;76.32;101204.00;4952065;28;20406;-44
2024/03/12 03:11:17;;;;;;;60.80;22.25;;;;;;;11.60;76.41;101208.34;4952356;28;20497;-43
2024/03/12 03:13:42;;;;;;;57.08;21.92;;;;;;;11.47;76.72;101206.38;4951445;28;20126;-48
2024/03/12 03:16:08;;;;;;;65.85;22.23;;;;;;;11.25;76.78;101202.59;4952726;28;20058;-46
2024/03/12 03:18:34;;;;;;;60.08;22.13;;;;;;;11.31;76.81;101200.06;4952547;28;20028;-45
2024/03/12 03:20:59;;;;;;;59.08;22.52;;;;;;;11.04;77.68;101208.31;4952468;28;20031;-44
2024/03/12 03:23:25;;;;;;;62.63;22.00;;;;;;;11.50;76.50;101204.72;4952399;28;20090;-45
2024/03/12 03:25:50;;;;;;;61.10;21.15;;;;;;;11.74;75.42;101201.59;4951860;28;20126;-48
2024/03/12 03:28:15;;;;;;;62.97;21.65;;;;;;;11.74;75.31;101199.88;4953897;28;20036;-48
2024/03/12 03:30:41;;;;;;;58.13;21.23;;;;;;;11.75;75.25;101205.97;4954360;28;20043;-43
2024/03/12 03:33:08;;;;;;;65.00;21.75;;;;;;;11.54;76.03;101214.34;4954763;28;20027;-43
2024/03/12 03:35:34;;;;;;;55.55;20.92;;;;;;;11.46;75.94;101208.16;4954616;28;20116;-45
2024/03/12 03:38:01;;;;;;;57.00;21.50;;;;;;;11.54;75.27;101213.47;4955101;28;20039;-45
2024/03/12 03:40:26;;;;;;;57.97;21.52;;;;;;;11.39;76.69;101209.78;4953149;28;20117;-46
2024/03/12 03:42:55;;;;;;;62.53;21.80;;;;;;;11.61;75.55;101218.81;4950581;28;20422;-44
2024/03/12 03:45:21;;;;;;;60.10;21.10;;;;;;;11.06;77.54;101213.56;4952296;28;20028;-44
2024/03/12 03:47:46;;;;;;;62.65;21.95;;;;;;;11.52;76.28;101216.06;4952328;28;20062;-46
2024/03/12 03:50:11;;;;;;;69.38;21.83;;;;;;;11.55;75.62;101218.72;4952978;28;20035;-44
2024/03/12 03:52:38;;;;;;;59.72;21.17;;;;;;;11.36;76.38;101222.78;4951759;28;20035;-47
2024/03/12 03:55:05;;;;;;;52.88;21.17;;;;;;;11.28;77.23;101234.81;4952822;28;20031;-46
2024/03/12 03:57:30;;;;;;;56.45;20.65;;;;;;;11.71;75.76;101231.13;4953696;28;20039;-45
2024/03/12 03:59:56;;;;;;;66.65;20.92;;;;;;;11.59;75.29;101230.06;4955093;28;20035;-46
2024/03/12 04:02:22;;;;;;;61.58;20.40;;;;;;;11.59;76.14;101237.91;4955641;28;20031;-46
2024/03/12 04:04:47;;;;;;;58.28;21.20;;;;;;;11.44;75.70;101238.56;4952159;28;20039;-46
2024/03/12 04:07:13;;;;;;;60.58;20.67;;;;;;;11.32;76.26;101244.47;4952421;28;20061;-45
2024/03/12 04:09:38;;;;;;;59.28;21.48;;;;;;;11.64;75.11;101241.50;4951964;28;20478;-43
2024/03/12 04:12:06;;;;;;;62.58;20.63;;;;;;;11.60;75.32;101245.78;4952157;28;20094;-45
2024/03/12 04:14:32;;;;;;;54.13;19.70;;;;;;;11.83;74.68;101255.72;4952309;28;20043;-45
2024/03/12 04:16:57;;;;;;;55.53;20.45;;;;;;;11.64;75.09;101252.81;4952176;28;20047;-44
2024/03/12 04:19:23;;;;;;;54.75;20.08;;;;;;;11.15;76.33;101258.09;4952232;28;20581;-47
2024/03/12 04:21:48;;;;;;;55.90;20.02;;;;;;;11.16;77.39;101262.47;4951724;28;20073;-45
2024/03/12 04:24:14;;;;;;;52.85;19.00;;;;;;;11.34;76.18;101268.00;4951941;28;20027;-44
2024/03/12 04:26:39;;;;;;;52.28;19.17;;;;;;;11.03;77.41;101266.59;4952024;28;20103;-44
2024/03/12 04:29:05;;;;;;;57.13;20.10;;;;;;;11.57;75.87;101265.75;4952424;28;20041;-45
2024/03/12 04:31:31;;;;;;;54.97;18.77;;;;;;;11.52;75.46;101265.69;4952175;28;20081;-45
2024/03/12 04:33:57;;;;;;;51.67;19.17;;;;;;;11.40;75.74;101268.09;4951924;28;20035;-47
2024/03/12 04:36:22;;;;;;;48.63;18.17;;;;;;;11.62;74.76;101277.13;4954072;28;20128;-43
2024/03/12 04:38:51;;;;;;;64.07;20.20;;;;;;;11.82;74.21;101280.09;4954560;28;20118;-46
2024/03/12 04:41:22;;;;;;;47.40;18.33;;;;;;;11.70;74.23;101283.38;4954120;28;20042;-44
2024/03/12 04:43:48;;;;;;;50.83;18.33;;;;;;;11.27;76.16;101293.13;4954260;28;20036;-45
2024/03/12 04:46:14;;;;;;;54.92;18.88;;;;;;;11.48;74.91;101295.19;4955183;28;20042;-43
2024/03/12 04:48:39;;;;;;;55.40;18.83;;;;;;;11.68;75.07;101305.97;4954280;28;20036;-48
2024/03/12 04:51:05;;;;;;;56.78;17.95;;;;;;;11.33;75.66;101301.06;4953611;28;20039;-48
2024/03/12 04:53:30;;;;;;;48.08;18.63;;;;;;;11.80;74.54;101298.34;4953662;28;20076;-45
2024/03/12 04:55:57;;;;;;;51.20;17.38;;;;;;;11.65;74.74;101305.91;4954847;28;20047;-44
2024/03/12 04:58:23;;;;;;;49.85;18.23;;;;;;;11.81;74.88;101301.84;4954842;28;20486;-43
2024/03/12 05:00:49;;;;;;;44.88;18.65;;;;;;;11.64;74.60;101312.00;4954139;28;20434;-44
2024/03/12 05:03:14;;;;;;;45.50;17.70;;;;;;;11.57;75.07;101316.25;4952542;28;20042;-44
2024/03/12 05:05:40;;;;;;;45.20;17.83;;;;;;;11.93;73.56;101315.09;4952060;28;20043;-50
2024/03/12 05:08:06;;;;;;;48.90;18.15;;;;;;;11.48;75.81;101323.91;4953012;28;20116;-44
2024/03/12 05:10:31;;;;;;;45.60;17.50;;;;;;;11.30;75.72;101318.38;4953875;28;20866;-43
2024/03/12 05:12:56;;;;;;;44.10;17.00;;;;;;;11.25;76.55;101320.91;4953370;28;20034;-45
2024/03/12 05:15:22;;;;;;;45.05;17.50;;;;;;;11.45;74.39;101323.88;4956206;29;20039;-42
2024/03/12 05:17:48;;;;;;;47.08;17.73;;;;;;;11.68;74.39;101335.56;4957882;28;20035;-44
2024/03/12 05:20:17;;;;;;;45.47;16.20;;;;;;;11.79;73.83;101335.78;4957803;28;20035;-46
2024/03/12 05:22:42;;;;;;;48.50;17.33;;;;;;;11.70;73.63;101327.78;4956761;28;20047;-46
2024/03/12 05:25:10;;;;;;;40.20;16.45;;;;;;;11.36;74.70;101341.97;4957840;28;20032;-44
2024/03/12 05:27:38;;;;;;;47.00;17.25;;;;;;;11.68;74.23;101338.19;4956675;28;20077;-44
2024/03/12 05:30:15;;;;;;;40.30;16.35;;;;;;;11.48;74.45;101339.56;4956000;28;20094;-46
2024/03/12 05:32:45;;;;;;;40.38;16.48;;;;;;;11.61;74.07;101345.88;4953719;28;20123;-45
2024/03/12 05:35:29;;;;;;;41.75;16.20;;;;;;;11.59;73.84;101351.06;4954875;28;20042;-45
2024/03/12 05:38:07;;;;;;;36.88;15.25;;;;;;;11.32;74.74;101348.88;4954553;28;20247;-44
2024/03/12 05:40:40;;;;;;;40.30;15.48;;;;;;;11.81;73.01;101354.09;4954441;28;20731;-50
2024/03/12 05:48:39;;;;;;;42.33;15.40;;;;;;;11.53;74.23;101364.03;4954429;28;20082;-51
2024/03/12 05:51:05;;;;;;;38.90;14.77;;;;;;;11.75;72.97;101366.19;4952685;28;20043;-46
2024/03/12 05:53:31;;;;;;;40.22;15.05;;;;;;;11.59;73.31;101369.34;4954052;28;20043;-46
2024/03/12 05:55:56;;;;;;;37.40;15.88;;;;;;;11.49;74.49;101364.84;4953589;28;20491;-48
2024/03/12 05:58:21;;;;;;;48.60;16.00;;;;;;;11.26;75.18;101376.59;4954005;28;20082;-45
2024/03/12 06:00:48;;;;;;;41.28;15.45;;;;;;;11.71;74.01;101366.94;4953526;28;20035;-46
2024/03/12 06:03:14;;;;;;;36.83;14.48;;;;;;;11.36;74.83;101370.69;4954710;28;20095;-44
2024/03/12 06:05:41;;;;;;;37.55;14.80;;;;;;;11.67;73.93;101375.59;4954836;28;20601;-45
2024/03/12 06:08:06;;;;;;;34.88;14.63;;;;;;;11.93;73.19;101378.69;4956456;28;20175;-48
2024/03/12 06:10:31;;;;;;;40.35;15.15;;;;;;;11.94;72.44;101380.44;4955022;28;20043;-45
2024/03/12 06:12:57;;;;;;;41.15;14.65;;;;;;;11.67;73.71;101386.03;4953640;28;20035;-47
2024/03/12 06:15:22;;;;;;;36.42;14.05;;;;;;;11.87;73.11;101385.53;4954871;28;20055;-46
2024/03/12 06:17:47;;;;;;;38.92;15.38;;;;;;;11.55;73.97;101384.94;4955694;28;20486;-47
2024/03/12 06:20:12;;;;;;;34.60;14.18;;;;;;;11.69;73.91;101392.19;4954070;28;20497;-48
2024/03/12 06:22:39;;;;;;;39.83;14.63;;;;;;;11.27;75.80;101387.09;4953561;28;20035;-47
2024/03/12 06:25:05;;;;;;;37.75;14.50;;;;;;;11.63;74.48;101402.53;4953934;28;20038;-45
2024/03/12 06:27:32;;;;;;;38.45;14.23;;;;;;;11.32;75.10;101395.88;4953528;28;20097;-45
2024/03/12 06:29:57;;;;;;;35.72;14.57;;;;;;;11.30;76.46;101392.34;4953094;28;20067;-47
2024/03/12 06:32:25;;;;;;;39.17;14.13;;;;;;;11.11;77.13;101402.41;4952698;28;20724;-46
2024/03/12 06:34:50;;;;;;;37.15;14.73;;;;;;;11.25;78.01;101407.03;4952962;28;20063;-46
2024/03/12 06:37:15;;;;;;;35.83;14.32;;;;;;;11.43;77.07;101405.63;4953420;28;20051;-47
2024/03/12 06:39:41;;;;;;;33.78;13.70;;;;;;;11.50;76.87;101402.28;4953073;28;20039;-46
2024/03/12 06:42:07;;;;;;;33.65;13.52;;;;;;;11.30;77.79;101407.13;4952877;28;20122;-46
2024/03/12 06:44:40;;;;;;;35.05;13.68;;;;;;;11.72;76.10;101405.28;4953639;28;20122;-46
2024/03/12 06:47:09;;;;;;;36.00;13.77;;;;;;;11.57;77.10;101406.75;4953409;28;20086;-45
2024/03/12 06:49:36;;;;;;;36.00;15.30;;;;;;;11.11;77.93;101408.50;4952764;28;20039;-45
2024/03/12 06:52:06;;;;;;;37.28;14.52;;;;;;;11.38;77.83;101416.88;4952605;28;20024;-46
2024/03/12 06:54:32;;;;;;;35.92;14.48;;;;;;;11.35;77.84;101415.91;4953188;28;20043;-46
2024/03/12 06:56:57;;;;;;;40.75;15.23;;;;;;;11.55;77.58;101417.16;4952749;28;20038;-46
2024/03/12 06:59:24;;;;;;;41.05;15.20;;;;;;;11.43;77.63;101419.56;4954018;28;20038;-48
2024/03/12 07:01:53;;;;;;;39.17;15.68;;;;;;;11.63;77.28;101419.94;4953354;28;20125;-45
2024/03/12 07:04:23;;;;;;;41.22;15.95;;;;;;;11.28;78.35;101422.75;4954762;28;20031;-49
2024/03/12 07:06:50;;;;;;;39.83;14.95;;;;;;;11.31;78.29;101416.72;4954056;28;20556;-44
2024/03/12 07:09:26;;;;;;;41.63;15.65;;;;;;;11.36;77.80;101423.78;4953640;28;20046;-47
2024/03/12 07:11:54;;;;;;;42.55;15.98;;;;;;;11.40;77.40;101425.59;4952378;28;20063;-46
2024/03/12 07:14:27;;;;;;;42.75;15.70;;;;;;;11.48;76.78;101430.97;4952659;28;20035;-47
2024/03/12 07:16:52;;;;;;;43.13;16.20;;;;;;;11.67;75.92;101433.06;4952596;28;20131;-45
2024/03/12 07:19:18;;;;;;;44.70;16.65;;;;;;;11.97;75.79;101439.69;4953033;28;20119;-47
2024/03/12 07:21:43;;;;;;;37.00;15.50;;;;;;;11.56;75.79;101432.00;4951988;28;20106;-45
2024/03/12 07:24:12;;;;;;;36.40;15.68;;;;;;;11.72;75.94;101430.53;4952626;28;20061;-48
2024/03/12 07:26:38;;;;;;;40.28;16.75;;;;;;;11.16;77.29;101432.09;4952287;28;20126;-45
2024/03/12 07:29:06;;;;;;;41.88;16.70;;;;;;;11.46;76.59;101432.69;4952703;28;20118;-45
2024/03/12 07:31:41;;;;;;;38.70;17.40;;;;;;;11.25;76.05;101438.38;4952570;28;20046;-44
2024/03/12 07:34:06;;;;;;;40.35;16.40;;;;;;;11.61;75.14;101435.56;4951788;28;20035;-46
2024/03/12 07:36:33;;;;;;;35.63;16.67;;;;;;;11.69;75.36;101441.81;4951871;28;20534;-45
2024/03/12 07:39:08;;;;;;;37.33;16.67;;;;;;;11.51;75.39;101443.22;4952210;28;20049;-49
2024/03/12 07:41:37;;;;;;;38.10;16.40;;;;;;;11.11;76.27;101449.38;4952143;28;20739;-47
2024/03/12 07:44:03;;;;;;;43.50;16.63;;;;;;;11.63;75.22;101444.31;4952121;28;20454;-46
2024/03/12 07:46:29;;;;;;;40.22;15.93;;;;;;;11.43;75.00;101448.28;4952373;28;20031;-46
2024/03/12 07:48:54;;;;;;;38.15;16.05;;;;;;;11.64;74.56;101455.66;4951881;28;20074;-46
2024/03/12 07:51:20;;;;;;;36.50;16.35;;;;;;;11.25;75.79;101455.75;4951909;28;20127;-44
2024/03/12 07:53:46;;;;;;;36.90;15.75;;;;;;;11.11;75.90;101449.38;4951668;28;20068;-48
2024/03/12 07:56:14;;;;;;;37.05;16.00;;;;;;;11.89;73.06;101457.88;4952133;28;20406;-48
2024/03/12 07:58:40;;;;;;;41.35;16.13;;;;;;;11.49;74.20;101458.84;4951956;28;20039;-51
2024/03/12 08:01:06;;;;;;;35.85;16.23;;;;;;;11.77;73.40;101468.09;4951941;28;20042;-50
2024/03/12 08:03:32;;;;;;;36.28;16.13;;;;;;;11.87;72.54;101467.41;4952231;28;20043;-47
2024/03/12 08:05:59;;;;;;;37.42;15.77;;;;;;;11.88;72.10;101465.69;4951924;28;20038;-46
2024/03/12 08:08:25;;;;;;;41.17;15.18;;;;;;;11.88;72.14;101468.28;4952734;28;20406;-45
2024/03/12 08:10:51;;;;;;;35.38;15.43;;;;;;;11.62;72.87;101473.88;4952169;28;20050;-45
2024/03/12 08:13:17;;;;;;;34.05;15.68;;;;;;;11.60;72.34;101470.34;4951629;28;20047;-47
2024/03/12 08:15:42;;;;;;;37.15;15.95;;;;;;;11.94;71.49;101476.25;4951940;28;20514;-44
2024/03/12 08:18:09;;;;;;;36.25;16.00;;;;;;;12.01;70.58;101472.88;4952314;28;20489;-44
2024/03/12 08:20:34;;;;;;;35.45;15.98;;;;;;;11.90;70.88;101479.63;4952043;28;20517;-46
2024/03/12 08:23:00;;;;;;;33.80;15.35;;;;;;;11.90;70.71;101474.41;4951703;28;20031;-46
2024/03/12 08:25:25;;;;;;;34.47;15.82;;;;;;;11.87;70.32;101476.97;4952547;28;20027;-46
2024/03/12 08:27:51;;;;;;;37.05;15.75;;;;;;;12.19;69.39;101474.06;4952125;28;20453;-50
2024/03/12 08:30:16;;;;;;;31.63;15.05;;;;;;;11.61;70.83;101477.34;4952258;28;20053;-49
2024/03/12 08:32:41;;;;;;;37.58;16.63;;;;;;;12.54;69.41;101468.50;4951469;28;20032;-48
2024/03/12 08:35:08;;;;;;;36.13;15.88;;;;;;;12.35;69.03;101471.69;4952420;28;20042;-47
2024/03/12 08:37:34;;;;;;;41.20;16.20;;;;;;;12.69;68.74;101473.94;4952551;28;20494;-46
2024/03/12 08:40:00;;;;;;;34.15;14.63;;;;;;;12.58;68.33;101476.41;4952115;28;20066;-45
2024/03/12 08:42:26;;;;;;;31.80;14.63;;;;;;;12.60;67.84;101476.44;4951595;28;20565;-46
2024/03/12 08:44:53;;;;;;;32.75;14.65;;;;;;;12.41;69.14;101477.00;4951884;28;20144;-44
2024/03/12 08:47:18;;;;;;;35.97;14.80;;;;;;;12.86;68.31;101474.19;4952572;28;20039;-46
2024/03/12 08:49:44;;;;;;;31.58;15.02;;;;;;;12.60;68.12;101474.69;4955354;28;20054;-48
2024/03/12 08:52:09;;;;;;;28.63;13.95;;;;;;;12.70;67.81;101480.03;4954896;28;20397;-53
2024/03/12 08:54:35;;;;;;;28.50;13.65;;;;;;;12.60;68.12;101482.53;4954915;28;20035;-44
2024/03/12 08:57:01;;;;;;;27.92;13.85;;;;;;;12.97;67.16;101477.81;4954144;29;20043;-45
2024/03/12 08:59:26;;;;;;;29.00;14.23;;;;;;;12.96;66.15;101484.78;4955344;28;20494;-48
2024/03/12 09:01:57;;;;;;;32.47;15.45;;;;;;;13.09;65.44;101477.09;4954457;28;20051;-49
2024/03/12 09:04:22;;;;;;;30.17;14.20;;;;;;;12.80;65.76;101479.34;4955329;28;20053;-46
2024/03/12 09:06:48;;;;;;;32.28;14.40;;;;;;;12.45;67.03;101486.66;4956324;28;20035;-45
2024/03/12 09:09:15;;;;;;;32.08;15.35;;;;;;;12.59;66.87;101488.63;4957291;28;20043;-44
2024/03/12 09:11:41;;;;;;;33.15;15.32;;;;;;;12.70;67.06;101493.13;4956875;28;20043;-45
2024/03/12 09:14:06;;;;;;;31.13;15.07;;;;;;;12.73;66.85;101490.56;4957127;28;20039;-45
2024/03/12 09:16:32;;;;;;;39.15;16.00;;;;;;;12.98;65.94;101493.56;4957566;28;20121;-45
2024/03/12 09:18:57;;;;;;;32.47;15.27;;;;;;;13.12;66.10;101495.44;4955946;28;20039;-44
2024/03/12 09:21:23;;;;;;;37.08;16.05;;;;;;;13.32;65.65;101489.66;4953657;29;20118;-49
2024/03/12 09:23:48;;;;;;;35.70;16.45;;;;;;;13.29;65.81;101486.13;4954400;28;20032;-45
2024/03/12 09:26:13;;;;;;;36.88;17.17;;;;;;;13.46;65.73;101494.16;4954953;28;20031;-45
2024/03/12 09:28:39;;;;;;;35.92;17.20;;;;;;;13.37;65.46;101490.56;4955787;28;20043;-47
2024/03/12 09:31:05;;;;;;;35.30;17.05;;;;;;;13.66;64.90;101496.13;4956387;28;20031;-44
2024/03/12 09:33:31;;;;;;;33.33;17.23;;;;;;;13.45;64.47;101490.66;4955653;28;20516;-45
2024/03/12 09:35:56;;;;;;;37.55;17.42;;;;;;;13.35;65.04;101489.69;4955354;28;20031;-47
2024/03/12 09:38:22;;;;;;;38.30;17.55;;;;;;;12.83;66.04;101503.78;4954967;28;20437;-46
2024/03/12 09:40:50;;;;;;;38.80;17.67;;;;;;;12.91;66.57;101501.28;4954159;28;20047;-48
2024/03/12 09:43:18;;;;;;;40.00;17.73;;;;;;;12.96;66.36;101500.50;4954026;28;20035;-48
2024/03/12 09:45:45;;;;;;;38.05;18.42;;;;;;;13.66;65.76;101504.00;4953976;28;20039;-48
2024/03/12 09:48:13;;;;;;;38.00;18.17;;;;;;;13.01;65.16;101496.19;4954488;28;20398;-45
2024/03/12 09:50:38;;;;;;;37.03;17.90;;;;;;;12.95;63.88;101495.22;4953110;28;20502;-47
2024/03/12 09:53:04;;;;;;;36.40;18.23;;;;;;;13.72;63.19;101501.44;4955310;28;20031;-46
2024/03/12 09:55:31;;;;;;;36.80;17.38;;;;;;;14.03;61.23;101501.72;4954762;28;20083;-45
2024/03/12 09:57:57;;;;;;;38.08;18.55;;;;;;;14.12;61.74;101500.09;4955133;28;20042;-44
2024/03/12 10:00:24;;;;;;;37.78;18.67;;;;;;;13.71;62.46;101497.09;4954281;28;20039;-45
2024/03/12 10:02:50;;;;;;;41.72;17.92;;;;;;;13.37;63.54;101490.56;4953572;28;20039;-45
2024/03/12 10:05:22;;;;;;;38.35;18.65;;;;;;;14.46;62.00;101495.13;4954061;28;20032;-45
2024/03/12 10:08:14;;;;;;;37.67;17.70;;;;;;;14.04;62.13;101499.13;4953749;28;20035;-44
2024/03/12 10:10:47;;;;;;;39.70;18.25;;;;;;;14.19;60.13;101501.03;4953670;28;20055;-45
2024/03/12 10:13:17;;;;;;;35.73;17.73;;;;;;;14.48;60.14;101501.28;4953614;28;20035;-50
2024/03/12 10:15:59;;;;;;;36.90;17.92;;;;;;;14.35;59.12;101492.41;4953903;28;20050;-45
2024/03/12 10:18:28;;;;;;;33.83;16.92;;;;;;;14.87;58.66;101482.31;4955498;28;20035;-46
2024/03/12 10:20:58;;;;;;;34.72;17.55;;;;;;;15.02;56.77;101490.25;4954883;28;20537;-47
2024/03/12 10:23:27;;;;;;;34.75;16.73;;;;;;;15.07;56.66;101488.50;4953871;28;20035;-47
2024/03/12 10:26:18;;;;;;;35.50;16.80;;;;;;;15.08;55.32;101487.66;4953378;28;20045;-48
2024/03/12 10:28:50;;;;;;;35.40;16.60;;;;;;;14.96;56.37;101488.47;4954931;28;20490;-49
2024/03/12 10:31:16;;;;;;;33.45;16.73;;;;;;;15.22;54.30;101480.72;4954847;28;20465;-55
2024/03/12 10:33:48;;;;;;;36.50;17.35;;;;;;;14.58;54.79;101489.97;4953613;28;20122;-45
2024/03/12 10:36:28;;;;;;;33.33;17.45;;;;;;;14.22;55.31;101490.53;4953363;28;20035;-49
2024/03/12 10:38:53;;;;;;;32.38;17.05;;;;;;;14.23;56.37;101489.69;4952895;28;20031;-49
2024/03/12 10:41:19;;;;;;;33.97;17.80;;;;;;;14.81;55.74;101482.28;4952725;28;20031;-46
2024/03/12 10:43:50;;;;;;;34.58;18.10;;;;;;;15.00;55.66;101476.25;4952127;28;20035;-48
2024/03/12 10:46:19;;;;;;;33.13;17.58;;;;;;;14.81;55.65;101474.41;4952782;28;20039;-48
2024/03/12 10:48:46;;;;;;;35.80;18.15;;;;;;;14.64;56.17;101482.16;4952594;28;20047;-50
2024/03/12 10:51:12;;;;;;;42.63;18.98;;;;;;;15.12;56.21;101470.16;4953239;28;20037;-48
2024/03/12 10:53:39;;;;;;;39.45;18.58;;;;;;;15.30;56.30;101479.00;4952463;28;20078;-46
2024/03/12 10:56:05;;;;;;;36.17;18.95;;;;;;;14.91;56.51;101489.31;4953410;28;20035;-48
2024/03/12 10:58:33;;;;;;;43.78;20.15;;;;;;;14.60;57.89;101488.25;4953982;28;20049;-47
2024/03/12 11:01:00;;;;;;;40.53;19.80;;;;;;;15.21;56.73;101478.06;4952673;28;20031;-50
2024/03/12 11:03:26;;;;;;;37.97;19.35;;;;;;;14.98;57.36;101470.97;4952568;28;20031;-46
2024/03/12 11:05:54;;;;;;;40.45;19.85;;;;;;;15.40;56.63;101474.66;4953996;28;20031;-44
2024/03/12 11:08:19;;;;;;;40.58;19.63;;;;;;;15.16;56.74;101478.06;4954491;28;20027;-45
2024/03/12 11:10:47;;;;;;;38.17;19.73;;;;;;;15.35;57.31;101469.38;4953558;28;20055;-45
2024/03/12 11:13:15;;;;;;;42.10;20.95;;;;;;;15.19;56.05;101470.19;4954116;28;20062;-45